الصفحة الرئيسية
METAR-TAF:

METAR-TAF

مطار :

مطار تشيناي الدولي

تشيناي, الهند

دائرة عرض: 13-00N, خط طول: 080-11E, ارتفاع: 10 متر

مراقبة الطقس الحالي

تاريخ ووقت الإصدار 27 دقيقة قبل الساعة 08:00UTC
ريح 8 عقدة من الشرق/الشمال الشرقي
درجة الحرارة 33°درجة مئوية
الرطوبة 53%
ضغط 1011 hPa
الرؤية: 7000 متر
غيوم قليلة على ارتفاع 2000 قدم

METAR: VOMM 310800Z 07008KT 7000 FEW020 33/22 Q1011 NOSIG

زمن: 13:57 (08:27 UTC)

توقعات

تاريخ ووقت الإصدار 3ساعات و 27 دقيقة قبل الساعة 05:00UTC
التوقعات صالحة من31 الساعة 06 UTC إلى 01 الساعة 12 UTC
ريح 10 عقدة من الجنوب الشرقي
الرؤية: 6000 متر
غيوم قليلة على ارتفاع 2000 قدم
أصبح
من 31 الساعة 15 UTC إلى 31 الساعة 16 UTC
ريح 2 عقدةمن اتجاهات متغيرة
أصبح
من 31 الساعة 18 UTC إلى 31 الساعة 19 UTC
الرؤية: 5000 متر
العجاج
مؤقت
من 01 الساعة 00 UTC إلى 01 الساعة 03 UTC
الرؤية: 3000 متر
غشاء
أصبح
من 01 الساعة 05 UTC إلى 01 الساعة 06 UTC
ريح 10 عقدة من الجنوب الشرقي
الرؤية: 6000 متر

TAF: VOMM 310500Z 3106/0112 14010KT 6000 FEW020 BECMG 3115/3116 VRB02KT BECMG 3118/3119 5000 HZ TEMPO 0100/0103 3000 BR BECMG 0105/0106 14010KT 6000

أرصاد الطقس والتوقعات من أكثر من 4000 مطار (تقارير الطقس للمطار METAR والتنبؤ بالطقس بالمطارTAF).

المحطات المتاحة هي النقط الصفراء والحمراء على الخريطة.

حرك المؤشر فوق النقطة لمعرفة اسم المحطة.

ثم انقر لمعرفة أرصاد وتوقعات الطقس.

لتغيير الخارطة: اضغط على الأزرار الخضراء مع رمز الصليب الأسود للتكبير. على الزر الأخضر مع شرطة للتصغير، أو على الأسهم الخضراء للخرائط المجاورة.


METAR-TAF: